sensor_id;sensor_type;location;lat;lon;timestamp;pressure;altitude;pressure_sealevel;temperature;humidity
15568;BME280;7885;42.596;23.044;2023-03-22T00:01:09;92579.00;;;10.88;93.46
15568;BME280;7885;42.596;23.044;2023-03-22T00:03:36;92582.13;;;10.87;93.53
15568;BME280;7885;42.596;23.044;2023-03-22T00:06:04;92555.41;;;10.75;92.71
15568;BME280;7885;42.596;23.044;2023-03-22T00:08:30;92574.41;;;10.82;92.24
15568;BME280;7885;42.596;23.044;2023-03-22T00:10:57;92574.94;;;10.66;92.38
15568;BME280;7885;42.596;23.044;2023-03-22T00:13:25;92525.97;;;10.22;93.42
15568;BME280;7885;42.596;23.044;2023-03-22T00:15:54;92575.44;;;10.54;93.54
15568;BME280;7885;42.596;23.044;2023-03-22T00:18:22;92575.44;;;10.54;93.10
15568;BME280;7885;42.596;23.044;2023-03-22T00:20:49;92582.75;;;10.60;93.06
15568;BME280;7885;42.596;23.044;2023-03-22T00:23:17;92572.31;;;10.55;94.67
15568;BME280;7885;42.596;23.044;2023-03-22T00:25:44;92517.34;;;10.30;94.80
15568;BME280;7885;42.596;23.044;2023-03-22T00:28:12;92582.69;;;10.68;92.83
15568;BME280;7885;42.596;23.044;2023-03-22T00:30:41;92521.25;;;10.29;91.29
15568;BME280;7885;42.596;23.044;2023-03-22T00:33:08;92577.69;;;10.62;90.99
15568;BME280;7885;42.596;23.044;2023-03-22T00:35:35;92575.34;;;10.64;91.88
15568;BME280;7885;42.596;23.044;2023-03-22T00:38:02;92570.78;;;10.54;91.15
15568;BME280;7885;42.596;23.044;2023-03-22T00:40:30;92573.84;;;10.56;91.18
15568;BME280;7885;42.596;23.044;2023-03-22T00:42:57;92564.56;;;10.54;92.45
15568;BME280;7885;42.596;23.044;2023-03-22T00:45:24;92552.09;;;10.56;93.20
15568;BME280;7885;42.596;23.044;2023-03-22T00:47:52;92570.69;;;10.65;91.93
15568;BME280;7885;42.596;23.044;2023-03-22T00:50:19;92573.44;;;10.61;91.91
15568;BME280;7885;42.596;23.044;2023-03-22T00:52:46;92565.41;;;10.47;91.98
15568;BME280;7885;42.596;23.044;2023-03-22T00:55:12;92563.84;;;10.46;92.49
15568;BME280;7885;42.596;23.044;2023-03-22T00:57:39;92576.22;;;10.54;92.38
15568;BME280;7885;42.596;23.044;2023-03-22T01:00:07;92573.91;;;10.49;90.43
15568;BME280;7885;42.596;23.044;2023-03-22T01:02:37;92573.91;;;10.49;90.89
15568;BME280;7885;42.596;23.044;2023-03-22T01:05:06;92572.34;;;10.48;92.28
15568;BME280;7885;42.596;23.044;2023-03-22T01:07:33;92579.69;;;10.55;92.46
15568;BME280;7885;42.596;23.044;2023-03-22T01:10:03;92531.00;;;10.27;92.86
15568;BME280;7885;42.596;23.044;2023-03-22T01:12:30;92560.31;;;10.49;93.62
15568;BME280;7885;42.596;23.044;2023-03-22T01:14:57;92567.25;;;10.57;94.00
15568;BME280;7885;42.596;23.044;2023-03-22T01:17:23;92560.59;;;10.58;93.91
15568;BME280;7885;42.596;23.044;2023-03-22T01:19:50;92530.97;;;10.30;93.72
15568;BME280;7885;42.596;23.044;2023-03-22T01:22:18;92562.97;;;10.56;93.73
15568;BME280;7885;42.596;23.044;2023-03-22T01:24:45;92542.09;;;10.43;93.94
15568;BME280;7885;42.596;23.044;2023-03-22T01:27:13;92565.34;;;10.54;94.02
15568;BME280;7885;42.596;23.044;2023-03-22T01:29:40;92562.97;;;10.56;94.09
15568;BME280;7885;42.596;23.044;2023-03-22T01:32:07;92569.97;;;10.57;94.34
15568;BME280;7885;42.596;23.044;2023-03-22T01:34:34;92562.22;;;10.52;94.70
15568;BME280;7885;42.596;23.044;2023-03-22T01:37:00;92556.78;;;10.52;94.90
15568;BME280;7885;42.596;23.044;2023-03-22T01:39:28;92558.75;;;10.48;94.83
15568;BME280;7885;42.596;23.044;2023-03-22T01:41:57;92525.13;;;10.28;94.80
15568;BME280;7885;42.596;23.044;2023-03-22T01:44:23;92522.06;;;10.26;94.77
15568;BME280;7885;42.596;23.044;2023-03-22T01:46:50;92492.69;;;10.00;94.53
15568;BME280;7885;42.596;23.044;2023-03-22T01:49:20;92555.31;;;10.44;94.07
15568;BME280;7885;42.596;23.044;2023-03-22T01:55:11;92558.41;;;10.46;93.88
15568;BME280;7885;42.596;23.044;2023-03-22T01:57:40;92549.13;;;10.40;94.19
15568;BME280;7885;42.596;23.044;2023-03-22T02:00:10;92556.81;;;10.49;94.25
15568;BME280;7885;42.596;23.044;2023-03-22T02:02:39;92560.75;;;10.44;94.33
15568;BME280;7885;42.596;23.044;2023-03-22T02:05:07;92554.56;;;10.40;95.16
15568;BME280;7885;42.596;23.044;2023-03-22T02:07:35;92560.00;;;10.40;95.16
15568;BME280;7885;42.596;23.044;2023-03-22T02:10:03;92556.91;;;10.38;95.15
15568;BME280;7885;42.596;23.044;2023-03-22T02:12:38;92560.03;;;10.37;94.82
15568;BME280;7885;42.596;23.044;2023-03-22T02:15:11;92555.00;;;10.35;95.10
15568;BME280;7885;42.596;23.044;2023-03-22T02:17:50;92539.19;;;10.23;95.71
15568;BME280;7885;42.596;23.044;2023-03-22T02:20:54;92557.75;;;10.32;96.03
15568;BME280;7885;42.596;23.044;2023-03-22T02:23:54;92560.06;;;10.33;95.84
15568;BME280;7885;42.596;23.044;2023-03-22T02:29:29;92557.81;;;10.21;96.12
15568;BME280;7885;42.596;23.044;2023-03-22T02:35:35;92561.72;;;10.24;96.00
15568;BME280;7885;42.596;23.044;2023-03-22T02:41:08;92555.53;;;10.12;96.48
15568;BME280;7885;42.596;23.044;2023-03-22T02:43:41;92564.09;;;10.07;96.74
15568;BME280;7885;42.596;23.044;2023-03-22T02:46:17;92557.59;;;9.98;97.28
15568;BME280;7885;42.596;23.044;2023-03-22T02:48:52;92568.41;;;10.05;97.60
15568;BME280;7885;42.596;23.044;2023-03-22T02:51:24;92521.63;;;9.73;97.90
15568;BME280;7885;42.596;23.044;2023-03-22T02:53:56;92534.00;;;9.81;97.77
15568;BME280;7885;42.596;23.044;2023-03-22T02:56:28;92572.25;;;10.07;97.74
15568;BME280;7885;42.596;23.044;2023-03-22T02:58:58;92559.88;;;10.03;97.58
15568;BME280;7885;42.596;23.044;2023-03-22T03:01:28;92577.28;;;10.12;97.54
15568;BME280;7885;42.596;23.044;2023-03-22T03:03:59;92560.25;;;10.05;97.72
15568;BME280;7885;42.596;23.044;2023-03-22T03:06:31;92569.53;;;10.11;97.46
15568;BME280;7885;42.596;23.044;2023-03-22T03:09:00;92571.88;;;10.09;97.19
15568;BME280;7885;42.596;23.044;2023-03-22T03:11:30;92576.94;;;10.07;97.39
15568;BME280;7885;42.596;23.044;2023-03-22T03:13:57;92567.25;;;10.06;97.08
15568;BME280;7885;42.596;23.044;2023-03-22T03:16:26;92544.44;;;9.93;96.86
15568;BME280;7885;42.596;23.044;2023-03-22T03:18:58;92575.75;;;10.15;96.91
15568;BME280;7885;42.596;23.044;2023-03-22T03:21:31;92574.56;;;10.12;96.91
15568;BME280;7885;42.596;23.044;2023-03-22T03:24:08;92586.63;;;10.15;96.71
15568;BME280;7885;42.596;23.044;2023-03-22T03:26:46;92592.06;;;10.15;96.90
15568;BME280;7885;42.596;23.044;2023-03-22T03:29:20;92539.44;;;9.81;97.41
15568;BME280;7885;42.596;23.044;2023-03-22T03:31:51;92582.72;;;10.12;97.36
15568;BME280;7885;42.596;23.044;2023-03-22T03:34:25;92583.13;;;10.07;97.41
15568;BME280;7885;42.596;23.044;2023-03-22T03:36:58;92536.00;;;9.73;97.86
15568;BME280;7885;42.596;23.044;2023-03-22T03:39:29;92587.44;;;10.05;97.96
15568;BME280;7885;42.596;23.044;2023-03-22T03:42:00;92586.69;;;10.01;97.91
15568;BME280;7885;42.596;23.044;2023-03-22T03:44:29;92594.06;;;9.97;98.64
15568;BME280;7885;42.596;23.044;2023-03-22T03:46:56;92539.97;;;9.58;98.89
15568;BME280;7885;42.596;23.044;2023-03-22T03:49:24;92600.75;;;9.89;98.85
15568;BME280;7885;42.596;23.044;2023-03-22T03:51:53;92598.44;;;9.84;99.39
15568;BME280;7885;42.596;23.044;2023-03-22T03:54:21;92605.03;;;9.83;99.31
15568;BME280;7885;42.596;23.044;2023-03-22T03:56:48;92603.53;;;9.78;99.61
15568;BME280;7885;42.596;23.044;2023-03-22T03:59:17;92576.00;;;9.65;100.00
15568;BME280;7885;42.596;23.044;2023-03-22T04:01:45;92605.06;;;9.76;99.86
15568;BME280;7885;42.596;23.044;2023-03-22T04:04:15;92602.41;;;9.72;100.00
15568;BME280;7885;42.596;23.044;2023-03-22T04:06:42;92608.59;;;9.73;99.85
15568;BME280;7885;42.596;23.044;2023-03-22T04:09:09;92607.03;;;9.75;100.00
15568;BME280;7885;42.596;23.044;2023-03-22T04:11:36;92608.59;;;9.73;100.00
15568;BME280;7885;42.596;23.044;2023-03-22T04:14:02;92588.09;;;9.57;100.00
15568;BME280;7885;42.596;23.044;2023-03-22T04:16:31;92616.34;;;9.74;99.85
15568;BME280;7885;42.596;23.044;2023-03-22T04:18:57;92605.50;;;9.71;99.68
15568;BME280;7885;42.596;23.044;2023-03-22T04:21:24;92613.28;;;9.72;99.43
15568;BME280;7885;42.596;23.044;2023-03-22T04:23:51;92610.91;;;9.78;99.35
15568;BME280;7885;42.596;23.044;2023-03-22T04:26:20;92594.28;;;9.65;99.32
15568;BME280;7885;42.596;23.044;2023-03-22T04:28:46;92593.06;;;9.70;98.47
15568;BME280;7885;42.596;23.044;2023-03-22T04:31:13;92612.78;;;9.88;98.76
15568;BME280;7885;42.596;23.044;2023-03-22T04:33:41;92558.22;;;9.57;98.47
15568;BME280;7885;42.596;23.044;2023-03-22T04:36:11;92611.59;;;9.92;98.33
15568;BME280;7885;42.596;23.044;2023-03-22T04:38:40;92594.16;;;9.83;98.21
15568;BME280;7885;42.596;23.044;2023-03-22T04:41:07;92597.69;;;9.80;98.13
15568;BME280;7885;42.596;23.044;2023-03-22T04:43:34;92601.94;;;9.81;98.60
15568;BME280;7885;42.596;23.044;2023-03-22T04:46:04;92599.97;;;9.88;98.48
15568;BME280;7885;42.596;23.044;2023-03-22T04:48:34;92617.00;;;9.99;98.66
15568;BME280;7885;42.596;23.044;2023-03-22T04:51:03;92611.53;;;10.03;98.42
15568;BME280;7885;42.596;23.044;2023-03-22T04:53:30;92620.06;;;10.05;98.27
15568;BME280;7885;42.596;23.044;2023-03-22T04:55:57;92621.22;;;10.04;98.43
15568;BME280;7885;42.596;23.044;2023-03-22T04:58:24;92621.97;;;10.08;98.51
15568;BME280;7885;42.596;23.044;2023-03-22T05:00:51;92625.44;;;10.12;98.19
15568;BME280;7885;42.596;23.044;2023-03-22T05:03:19;92631.69;;;10.09;98.57
15568;BME280;7885;42.596;23.044;2023-03-22T05:05:49;92620.41;;;10.07;98.27
15568;BME280;7885;42.596;23.044;2023-03-22T05:08:18;92631.69;;;10.16;98.40
15568;BME280;7885;42.596;23.044;2023-03-22T05:10:46;92629.31;;;10.18;98.03
15568;BME280;7885;42.596;23.044;2023-03-22T05:13:12;92620.84;;;10.05;97.84
15568;BME280;7885;42.596;23.044;2023-03-22T05:15:39;92639.41;;;10.21;98.04
15568;BME280;7885;42.596;23.044;2023-03-22T05:18:07;92638.63;;;10.21;97.74
15568;BME280;7885;42.596;23.044;2023-03-22T05:20:33;92640.94;;;10.26;97.71
15568;BME280;7885;42.596;23.044;2023-03-22T05:23:00;92643.28;;;10.27;97.36
15568;BME280;7885;42.596;23.044;2023-03-22T05:25:30;92586.38;;;9.92;97.51
15568;BME280;7885;42.596;23.044;2023-03-22T05:27:57;92616.88;;;10.17;97.44
15568;BME280;7885;42.596;23.044;2023-03-22T05:30:26;92616.13;;;10.13;96.88
15568;BME280;7885;42.596;23.044;2023-03-22T05:32:56;92623.88;;;10.18;96.89
15568;BME280;7885;42.596;23.044;2023-03-22T05:35:24;92614.97;;;10.10;96.55
15568;BME280;7885;42.596;23.044;2023-03-22T05:37:51;92644.03;;;10.24;96.48
15568;BME280;7885;42.596;23.044;2023-03-22T05:40:18;92627.78;;;10.13;95.99
15568;BME280;7885;42.596;23.044;2023-03-22T05:42:46;92640.91;;;10.29;95.69
15568;BME280;7885;42.596;23.044;2023-03-22T05:45:13;92648.31;;;10.25;95.93
15568;BME280;7885;42.596;23.044;2023-03-22T05:47:40;92638.66;;;10.13;95.11
15568;BME280;7885;42.596;23.044;2023-03-22T05:50:09;92619.28;;;10.04;95.29
15568;BME280;7885;42.596;23.044;2023-03-22T05:52:37;92655.31;;;10.26;95.39
15568;BME280;7885;42.596;23.044;2023-03-22T05:55:05;92651.78;;;10.29;95.06
15568;BME280;7885;42.596;23.044;2023-03-22T05:57:32;92641.34;;;10.21;94.15
15568;BME280;7885;42.596;23.044;2023-03-22T06:00:00;92658.75;;;10.37;93.25
15568;BME280;7885;42.596;23.044;2023-03-22T06:02:30;92656.41;;;10.36;93.12
15568;BME280;7885;42.596;23.044;2023-03-22T06:04:57;92660.66;;;10.40;93.39
15568;BME280;7885;42.596;23.044;2023-03-22T06:07:23;92656.38;;;10.39;93.19
15568;BME280;7885;42.596;23.044;2023-03-22T06:09:51;92657.94;;;10.40;92.54
15568;BME280;7885;42.596;23.044;2023-03-22T06:12:18;92616.88;;;10.17;93.65
15568;BME280;7885;42.596;23.044;2023-03-22T06:14:48;92667.53;;;10.55;93.78
15568;BME280;7885;42.596;23.044;2023-03-22T06:17:16;92674.13;;;10.61;94.75
15568;BME280;7885;42.596;23.044;2023-03-22T06:19:43;92671.75;;;10.63;94.91
15568;BME280;7885;42.596;23.044;2023-03-22T06:22:10;92616.78;;;10.31;91.67
15568;BME280;7885;42.596;23.044;2023-03-22T06:24:37;92659.75;;;10.57;91.20
15568;BME280;7885;42.596;23.044;2023-03-22T06:27:05;92677.13;;;10.74;91.50
15568;BME280;7885;42.596;23.044;2023-03-22T06:29:31;92672.38;;;10.85;92.55
15568;BME280;7885;42.596;23.044;2023-03-22T06:31:58;92678.09;;;10.98;93.07
15568;BME280;7885;42.596;23.044;2023-03-22T06:34:27;92628.16;;;10.71;93.33
15568;BME280;7885;42.596;23.044;2023-03-22T06:36:54;92679.94;;;11.08;93.87
15568;BME280;7885;42.596;23.044;2023-03-22T06:39:21;92681.84;;;11.11;93.25
15568;BME280;7885;42.596;23.044;2023-03-22T06:41:48;92684.59;;;11.11;93.01
15568;BME280;7885;42.596;23.044;2023-03-22T06:44:15;92689.22;;;11.14;92.32
15568;BME280;7885;42.596;23.044;2023-03-22T06:46:42;92691.19;;;11.13;91.54
15568;BME280;7885;42.596;23.044;2023-03-22T06:49:09;92692.38;;;11.12;89.52
15568;BME280;7885;42.596;23.044;2023-03-22T06:51:37;92699.41;;;11.10;89.74
15568;BME280;7885;42.596;23.044;2023-03-22T06:57:31;92698.56;;;11.17;91.59
15568;BME280;7885;42.596;23.044;2023-03-22T06:59:58;92698.91;;;11.19;91.00
15568;BME280;7885;42.596;23.044;2023-03-22T07:02:25;92671.41;;;11.06;90.53
15568;BME280;7885;42.596;23.044;2023-03-22T07:04:51;92696.69;;;11.47;90.29
15568;BME280;7885;42.596;23.044;2023-03-22T07:07:19;92704.28;;;11.66;89.33
15568;BME280;7885;42.596;23.044;2023-03-22T07:09:46;92691.03;;;11.72;88.31
15568;BME280;7885;42.596;23.044;2023-03-22T07:12:14;92708.47;;;12.12;87.21
15568;BME280;7885;42.596;23.044;2023-03-22T07:14:41;92611.25;;;11.64;87.22
15568;BME280;7885;42.596;23.044;2023-03-22T07:17:07;92699.53;;;12.38;87.46
15568;BME280;7885;42.596;23.044;2023-03-22T07:19:36;92714.78;;;12.62;86.22
15568;BME280;7885;42.596;23.044;2023-03-22T07:22:03;92719.41;;;12.65;85.75
15568;BME280;7885;42.596;23.044;2023-03-22T07:24:31;92720.28;;;12.59;85.81
15568;BME280;7885;42.596;23.044;2023-03-22T07:26:58;92712.72;;;12.43;86.25
15568;BME280;7885;42.596;23.044;2023-03-22T07:29:25;92719.75;;;12.44;85.93
15568;BME280;7885;42.596;23.044;2023-03-22T07:31:52;92729.94;;;12.40;86.47
15568;BME280;7885;42.596;23.044;2023-03-22T07:34:18;92726.88;;;12.35;86.92
15568;BME280;7885;42.596;23.044;2023-03-22T07:36:45;92728.47;;;12.32;86.54
15568;BME280;7885;42.596;23.044;2023-03-22T07:39:12;92737.81;;;12.31;86.27
15568;BME280;7885;42.596;23.044;2023-03-22T07:41:40;92727.63;;;12.35;86.82
15568;BME280;7885;42.596;23.044;2023-03-22T07:44:07;92735.75;;;12.42;87.13
15568;BME280;7885;42.596;23.044;2023-03-22T07:46:33;92739.06;;;12.57;85.88
15568;BME280;7885;42.596;23.044;2023-03-22T07:49:00;92720.59;;;12.38;85.12
15568;BME280;7885;42.596;23.044;2023-03-22T07:51:27;92742.28;;;12.48;84.83
15568;BME280;7885;42.596;23.044;2023-03-22T07:53:54;92737.13;;;12.27;85.35
15568;BME280;7885;42.596;23.044;2023-03-22T07:56:21;92741.03;;;12.26;85.15
15568;BME280;7885;42.596;23.044;2023-03-22T07:58:49;92729.94;;;12.10;86.08
15568;BME280;7885;42.596;23.044;2023-03-22T08:01:15;92741.16;;;12.15;85.22
15568;BME280;7885;42.596;23.044;2023-03-22T08:03:42;92741.19;;;12.12;85.88
15568;BME280;7885;42.596;23.044;2023-03-22T08:06:09;92752.88;;;12.12;86.52
15568;BME280;7885;42.596;23.044;2023-03-22T08:08:37;92750.16;;;12.12;87.07
15568;BME280;7885;42.596;23.044;2023-03-22T08:11:05;92746.34;;;12.06;87.54
15568;BME280;7885;42.596;23.044;2023-03-22T08:13:32;92677.91;;;11.56;87.54
15568;BME280;7885;42.596;23.044;2023-03-22T08:16:00;92733.72;;;11.86;87.05
15568;BME280;7885;42.596;23.044;2023-03-22T08:18:27;92750.03;;;11.89;87.83
15568;BME280;7885;42.596;23.044;2023-03-22T08:20:54;92725.75;;;11.61;87.49
15568;BME280;7885;42.596;23.044;2023-03-22T08:23:21;92743.56;;;11.69;87.25
15568;BME280;7885;42.596;23.044;2023-03-22T08:25:48;92758.78;;;11.66;87.75
15568;BME280;7885;42.596;23.044;2023-03-22T08:28:15;92757.22;;;11.65;87.86
15568;BME280;7885;42.596;23.044;2023-03-22T08:30:42;92751.09;;;11.58;88.32
15568;BME280;7885;42.596;23.044;2023-03-22T08:33:11;92756.53;;;11.61;88.81
15568;BME280;7885;42.596;23.044;2023-03-22T08:35:38;92760.41;;;11.60;88.32
15568;BME280;7885;42.596;23.044;2023-03-22T08:38:05;92755.84;;;11.50;88.36
15568;BME280;7885;42.596;23.044;2023-03-22T08:40:32;92766.25;;;11.59;88.43
15568;BME280;7885;42.596;23.044;2023-03-22T08:42:59;92765.84;;;11.64;87.80
15568;BME280;7885;42.596;23.044;2023-03-22T08:45:26;92761.22;;;11.57;88.33
15568;BME280;7885;42.596;23.044;2023-03-22T08:47:53;92766.63;;;11.64;88.20
15568;BME280;7885;42.596;23.044;2023-03-22T08:50:21;92763.50;;;11.62;88.21
15568;BME280;7885;42.596;23.044;2023-03-22T08:52:48;92757.31;;;11.58;88.24
15568;BME280;7885;42.596;23.044;2023-03-22T08:55:16;92770.50;;;11.63;87.40
15568;BME280;7885;42.596;23.044;2023-03-22T08:57:43;92775.16;;;11.66;87.46
15568;BME280;7885;42.596;23.044;2023-03-22T09:00:16;92780.56;;;11.70;87.58
15568;BME280;7885;42.596;23.044;2023-03-22T09:02:43;92708.16;;;11.28;87.51
15568;BME280;7885;42.596;23.044;2023-03-22T09:05:09;92789.88;;;11.76;87.23
15568;BME280;7885;42.596;23.044;2023-03-22T09:07:39;92773.47;;;11.80;86.73
15568;BME280;7885;42.596;23.044;2023-03-22T09:10:07;92792.47;;;11.90;86.88
15568;BME280;7885;42.596;23.044;2023-03-22T09:12:34;92794.34;;;11.97;86.77
15568;BME280;7885;42.596;23.044;2023-03-22T09:15:02;92785.69;;;12.05;85.76
15568;BME280;7885;42.596;23.044;2023-03-22T09:17:28;92789.16;;;12.09;85.42
15568;BME280;7885;42.596;23.044;2023-03-22T09:19:55;92787.22;;;12.10;84.81
15568;BME280;7885;42.596;23.044;2023-03-22T09:22:22;92764.81;;;11.92;84.52
15568;BME280;7885;42.596;23.044;2023-03-22T09:24:50;92790.84;;;11.96;84.93
15568;BME280;7885;42.596;23.044;2023-03-22T09:27:17;92739.72;;;11.66;84.94
15568;BME280;7885;42.596;23.044;2023-03-22T09:29:44;92773.84;;;11.85;85.13
15568;BME280;7885;42.596;23.044;2023-03-22T09:32:10;92792.06;;;11.92;85.32
15568;BME280;7885;42.596;23.044;2023-03-22T09:34:37;92777.31;;;11.89;84.81
15568;BME280;7885;42.596;23.044;2023-03-22T09:37:04;92794.34;;;11.97;84.27
15568;BME280;7885;42.596;23.044;2023-03-22T09:39:30;92772.66;;;11.83;84.40
15568;BME280;7885;42.596;23.044;2023-03-22T09:42:01;92772.75;;;11.76;84.55
15568;BME280;7885;42.596;23.044;2023-03-22T09:44:33;92795.97;;;11.91;84.89
15568;BME280;7885;42.596;23.044;2023-03-22T09:47:03;92795.63;;;11.89;84.74
15568;BME280;7885;42.596;23.044;2023-03-22T09:49:34;92793.28;;;11.87;84.95
15568;BME280;7885;42.596;23.044;2023-03-22T09:52:10;92764.22;;;11.70;85.24
15568;BME280;7885;42.596;23.044;2023-03-22T09:54:39;92786.22;;;11.90;85.27
15568;BME280;7885;42.596;23.044;2023-03-22T09:57:12;92787.78;;;11.91;85.68
15568;BME280;7885;42.596;23.044;2023-03-22T09:59:47;92791.69;;;11.90;86.10
15568;BME280;7885;42.596;23.044;2023-03-22T10:02:42;92791.31;;;11.88;86.24
15568;BME280;7885;42.596;23.044;2023-03-22T10:05:20;92792.09;;;11.88;86.42
15568;BME280;7885;42.596;23.044;2023-03-22T10:08:04;92745.69;;;11.54;86.63
15568;BME280;7885;42.596;23.044;2023-03-22T10:10:33;92759.25;;;11.61;87.56
15568;BME280;7885;42.596;23.044;2023-03-22T10:13:15;92777.88;;;11.66;87.19
15568;BME280;7885;42.596;23.044;2023-03-22T10:15:45;92780.56;;;11.74;87.82
15568;BME280;7885;42.596;23.044;2023-03-22T10:18:17;92788.22;;;11.89;87.72
15568;BME280;7885;42.596;23.044;2023-03-22T10:20:48;92782.00;;;11.85;87.23
15568;BME280;7885;42.596;23.044;2023-03-22T10:23:21;92754.13;;;11.71;87.59
15568;BME280;7885;42.596;23.044;2023-03-22T10:25:51;92790.00;;;12.03;87.82
15568;BME280;7885;42.596;23.044;2023-03-22T10:28:24;92772.97;;;11.92;87.35
15568;BME280;7885;42.596;23.044;2023-03-22T10:30:54;92784.09;;;12.08;87.57
15568;BME280;7885;42.596;23.044;2023-03-22T10:33:29;92748.50;;;11.85;85.56
15568;BME280;7885;42.596;23.044;2023-03-22T10:35:59;92797.66;;;12.15;84.88
15568;BME280;7885;42.596;23.044;2023-03-22T10:38:28;92784.91;;;12.05;85.83
15568;BME280;7885;42.596;23.044;2023-03-22T10:40:57;92792.56;;;12.17;85.25
15568;BME280;7885;42.596;23.044;2023-03-22T10:43:29;92797.25;;;12.17;86.16
15568;BME280;7885;42.596;23.044;2023-03-22T10:45:57;92776.34;;;12.06;85.13
15568;BME280;7885;42.596;23.044;2023-03-22T10:48:27;92747.03;;;11.77;84.89
15568;BME280;7885;42.596;23.044;2023-03-22T10:50:57;92789.56;;;12.08;86.39
15568;BME280;7885;42.596;23.044;2023-03-22T10:53:29;92791.97;;;12.02;86.06
15568;BME280;7885;42.596;23.044;2023-03-22T10:56:00;92800.59;;;11.94;86.81
15568;BME280;7885;42.596;23.044;2023-03-22T10:58:32;92797.56;;;11.88;87.41
15568;BME280;7885;42.596;23.044;2023-03-22T11:01:04;92761.50;;;11.66;87.24
15568;BME280;7885;42.596;23.044;2023-03-22T11:03:37;92771.22;;;11.75;86.67
15568;BME280;7885;42.596;23.044;2023-03-22T11:06:08;92777.41;;;11.79;86.41
15568;BME280;7885;42.596;23.044;2023-03-22T11:08:40;92788.97;;;11.90;85.89
15568;BME280;7885;42.596;23.044;2023-03-22T11:11:14;92780.09;;;11.82;85.27
15568;BME280;7885;42.596;23.044;2023-03-22T11:13:49;92793.25;;;11.91;85.20
15568;BME280;7885;42.596;23.044;2023-03-22T11:16:16;92787.00;;;11.90;85.44
15568;BME280;7885;42.596;23.044;2023-03-22T11:18:45;92792.81;;;11.96;86.40
15568;BME280;7885;42.596;23.044;2023-03-22T11:21:14;92783.06;;;11.95;87.20
15568;BME280;7885;42.596;23.044;2023-03-22T11:23:48;92786.59;;;11.95;86.07
15568;BME280;7885;42.596;23.044;2023-03-22T11:26:25;92773.47;;;11.80;85.82
15568;BME280;7885;42.596;23.044;2023-03-22T11:29:00;92782.81;;;11.82;85.25
15568;BME280;7885;42.596;23.044;2023-03-22T11:31:47;92776.66;;;11.75;85.18
15568;BME280;7885;42.596;23.044;2023-03-22T11:34:17;92775.91;;;11.71;85.92
15568;BME280;7885;42.596;23.044;2023-03-22T11:36:45;92782.16;;;11.68;85.61
15568;BME280;7885;42.596;23.044;2023-03-22T11:39:17;92764.31;;;11.59;85.65
15568;BME280;7885;42.596;23.044;2023-03-22T11:41:45;92786.75;;;11.78;86.08
15568;BME280;7885;42.596;23.044;2023-03-22T11:44:16;92768.84;;;11.77;85.86
15568;BME280;7885;42.596;23.044;2023-03-22T11:46:48;92768.09;;;11.69;86.45
15568;BME280;7885;42.596;23.044;2023-03-22T11:49:17;92778.50;;;11.85;85.94
15568;BME280;7885;42.596;23.044;2023-03-22T11:51:44;92778.88;;;11.87;85.90
15568;BME280;7885;42.596;23.044;2023-03-22T11:54:15;92774.91;;;11.95;86.88
15568;BME280;7885;42.596;23.044;2023-03-22T11:56:47;92779.47;;;12.05;85.23
15568;BME280;7885;42.596;23.044;2023-03-22T11:59:21;92778.69;;;12.04;85.20
15568;BME280;7885;42.596;23.044;2023-03-22T12:01:51;92779.69;;;12.18;85.16
15568;BME280;7885;42.596;23.044;2023-03-22T12:04:25;92774.94;;;12.25;84.32
15568;BME280;7885;42.596;23.044;2023-03-22T12:06:55;92757.47;;;12.19;84.03
15568;BME280;7885;42.596;23.044;2023-03-22T12:09:30;92778.47;;;12.22;83.33
15568;BME280;7885;42.596;23.044;2023-03-22T12:12:01;92777.38;;;12.16;84.94
15568;BME280;7885;42.596;23.044;2023-03-22T12:14:34;92764.56;;;12.13;86.03
15568;BME280;7885;42.596;23.044;2023-03-22T12:17:10;92775.94;;;12.38;84.89
15568;BME280;7885;42.596;23.044;2023-03-22T12:19:49;92772.94;;;12.59;84.04
15568;BME280;7885;42.596;23.044;2023-03-22T12:22:20;92700.19;;;12.19;82.82
15568;BME280;7885;42.596;23.044;2023-03-22T12:24:48;92770.38;;;12.76;81.45
15568;BME280;7885;42.596;23.044;2023-03-22T12:27:17;92762.75;;;12.90;81.58
15568;BME280;7885;42.596;23.044;2023-03-22T12:29:52;92769.72;;;12.95;80.46
15568;BME280;7885;42.596;23.044;2023-03-22T12:32:22;92765.72;;;13.03;80.73
15568;BME280;7885;42.596;23.044;2023-03-22T12:34:51;92754.28;;;13.11;80.35
15568;BME280;7885;42.596;23.044;2023-03-22T12:37:21;92719.63;;;13.05;79.18
15568;BME280;7885;42.596;23.044;2023-03-22T12:39:54;92764.72;;;13.66;77.84
15568;BME280;7885;42.596;23.044;2023-03-22T12:42:24;92762.19;;;13.76;77.40
15568;BME280;7885;42.596;23.044;2023-03-22T12:44:57;92678.59;;;13.08;76.76
15568;BME280;7885;42.596;23.044;2023-03-22T12:47:30;92769.47;;;13.39;76.76
15568;BME280;7885;42.596;23.044;2023-03-22T12:50:02;92681.97;;;12.66;77.96
15568;BME280;7885;42.596;23.044;2023-03-22T12:52:34;92733.69;;;12.77;78.40
15568;BME280;7885;42.596;23.044;2023-03-22T12:55:03;92758.28;;;12.77;79.05
15568;BME280;7885;42.596;23.044;2023-03-22T12:57:31;92759.00;;;12.81;81.41
15568;BME280;7885;42.596;23.044;2023-03-22T13:00:04;92766.84;;;12.79;81.71
15568;BME280;7885;42.596;23.044;2023-03-22T13:02:34;92755.81;;;12.86;82.66
15568;BME280;7885;42.596;23.044;2023-03-22T13:05:03;92762.09;;;12.83;82.79
15568;BME280;7885;42.596;23.044;2023-03-22T13:07:35;92743.25;;;12.65;82.69
15568;BME280;7885;42.596;23.044;2023-03-22T13:13:32;92753.50;;;13.11;82.11
15568;BME280;7885;42.596;23.044;2023-03-22T13:16:12;92732.16;;;13.29;81.28
15568;BME280;7885;42.596;23.044;2023-03-22T13:19:15;92760.91;;;13.60;78.92
15568;BME280;7885;42.596;23.044;2023-03-22T13:21:43;92755.78;;;13.62;79.00
15568;BME280;7885;42.596;23.044;2023-03-22T13:24:21;92753.66;;;13.74;78.20
15568;BME280;7885;42.596;23.044;2023-03-22T13:26:49;92746.50;;;13.80;78.12
15568;BME280;7885;42.596;23.044;2023-03-22T13:29:19;92751.25;;;13.76;76.82
15568;BME280;7885;42.596;23.044;2023-03-22T13:31:53;92748.34;;;13.63;76.23